createdAt,value
2023-01-02T00:00:51.628Z,52.57
2023-01-02T00:03:59.243Z,50.95
2023-01-02T00:07:03.171Z,52.42
2023-01-02T00:10:06.288Z,50.95
2023-01-02T00:13:09.957Z,49.53
2023-01-02T00:16:20.755Z,52.60
2023-01-02T00:19:23.405Z,53.85
2023-01-02T00:22:29.154Z,54.70
2023-01-02T00:25:35.517Z,49.67
2023-01-02T00:28:39.248Z,53.53
2023-01-02T00:31:42.185Z,50.93
2023-01-02T00:34:45.048Z,51.47
2023-01-02T00:37:47.996Z,49.53
2023-01-02T00:40:50.777Z,49.08
2023-01-02T00:43:54.129Z,48.85
2023-01-02T00:46:58.239Z,50.20
2023-01-02T00:50:02.760Z,52.62
2023-01-02T00:53:06.560Z,48.92
2023-01-02T00:56:11.510Z,49.00
2023-01-02T00:59:14.509Z,48.70
2023-01-02T01:02:19.424Z,47.50
2023-01-02T01:05:23.037Z,46.65
2023-01-02T01:08:25.521Z,51.88
2023-01-02T01:11:28.985Z,52.50
2023-01-02T01:14:33.284Z,49.97
2023-01-02T01:17:36.513Z,50.27
2023-01-02T01:20:40.519Z,51.47
2023-01-02T01:23:44.893Z,55.22
2023-01-02T01:26:48.022Z,54.42
2023-01-02T01:29:51.518Z,49.25
2023-01-02T01:32:56.086Z,59.03
2023-01-02T01:36:16.895Z,49.30
2023-01-02T01:39:19.998Z,46.10
2023-01-02T01:42:24.541Z,51.40
2023-01-02T01:45:27.109Z,49.15
2023-01-02T01:48:30.663Z,51.53
2023-01-02T01:51:41.177Z,50.55
2023-01-02T01:54:54.072Z,52.17
2023-01-02T01:58:00.895Z,52.38
2023-01-02T02:01:06.411Z,51.50
2023-01-02T02:04:11.504Z,53.60
2023-01-02T02:07:14.441Z,52.60
2023-01-02T02:10:20.648Z,56.80
2023-01-02T02:13:33.152Z,53.13
2023-01-02T02:17:04.309Z,52.17
2023-01-02T02:20:16.411Z,53.83
2023-01-02T02:23:48.594Z,51.45
2023-01-02T02:27:12.117Z,53.80
2023-01-02T02:30:20.804Z,58.22
2023-01-02T02:33:46.453Z,89.47
2023-01-02T02:37:21.435Z,126.53
2023-01-02T02:40:41.108Z,157.55
2023-01-02T02:44:02.716Z,144.90
2023-01-02T02:47:38.345Z,170.93
2023-01-02T02:51:02.942Z,175.60
2023-01-02T02:54:16.435Z,108.90
2023-01-02T02:57:20.677Z,77.87
2023-01-02T03:00:26.285Z,100.65
2023-01-02T03:03:29.831Z,96.85
2023-01-02T03:07:00.089Z,83.18
2023-01-02T03:10:15.221Z,97.33
2023-01-02T03:13:40.576Z,76.12
2023-01-02T03:16:46.970Z,81.50
2023-01-02T03:19:57.873Z,86.10
2023-01-02T03:23:08.252Z,82.22
2023-01-02T03:26:15.744Z,58.77
2023-01-02T03:29:30.520Z,44.90
2023-01-02T03:32:43.843Z,65.43
2023-01-02T03:35:51.571Z,65.47
2023-01-02T03:39:02.568Z,51.00
2023-01-02T03:42:34.182Z,54.20
2023-01-02T03:45:42.635Z,52.65
2023-01-02T03:48:54.114Z,66.57
2023-01-02T03:51:57.108Z,71.40
2023-01-02T03:55:02.053Z,51.78
2023-01-02T03:58:13.159Z,49.20
2023-01-02T04:01:28.740Z,60.30
2023-01-02T04:04:50.955Z,70.15
2023-01-02T04:08:10.261Z,66.82
2023-01-02T04:11:17.289Z,71.43
2023-01-02T04:14:33.633Z,75.47
2023-01-02T04:17:45.148Z,70.70
2023-01-02T04:20:53.045Z,66.35
2023-01-02T04:24:03.171Z,77.37
2023-01-02T04:27:14.736Z,80.68
2023-01-02T04:30:19.905Z,65.70
2023-01-02T04:33:25.015Z,59.60
2023-01-02T04:36:28.579Z,50.80
2023-01-02T04:39:32.497Z,69.78
2023-01-02T04:42:36.009Z,82.88
2023-01-02T04:45:38.862Z,60.83
2023-01-02T04:48:41.993Z,58.10
2023-01-02T04:51:45.892Z,51.67
2023-01-02T04:54:48.706Z,87.62
2023-01-02T04:57:51.303Z,61.97
2023-01-02T05:00:55.134Z,70.67
2023-01-02T05:03:59.430Z,47.65
2023-01-02T05:07:03.611Z,67.90
2023-01-02T05:10:12.512Z,92.75
2023-01-02T05:13:16.385Z,82.82
2023-01-02T05:16:19.392Z,76.03
2023-01-02T05:19:22.680Z,71.15
2023-01-02T05:22:43.958Z,94.57
2023-01-02T05:25:47.199Z,95.05
2023-01-02T05:28:54.600Z,93.70
2023-01-02T05:31:57.825Z,126.43
2023-01-02T05:35:00.574Z,136.48
2023-01-02T05:38:04.018Z,151.75
2023-01-02T05:41:08.228Z,141.52
2023-01-02T05:44:13.460Z,149.93
2023-01-02T05:47:17.094Z,75.53
2023-01-02T05:50:20.388Z,95.12
2023-01-02T05:53:23.451Z,68.28
2023-01-02T05:56:29.813Z,126.95
2023-01-02T05:59:36.097Z,137.82
2023-01-02T06:02:44.303Z,64.27
2023-01-02T06:05:51.118Z,128.68
2023-01-02T06:08:54.234Z,134.30
2023-01-02T06:11:58.524Z,94.55
2023-01-02T06:15:04.125Z,113.97
2023-01-02T06:18:09.135Z,116.63
2023-01-02T06:21:14.967Z,132.32
2023-01-02T06:24:18.680Z,112.28
2023-01-02T06:27:22.455Z,139.68
2023-01-02T06:30:30.223Z,113.43
2023-01-02T06:33:36.148Z,95.53
2023-01-02T06:36:43.839Z,111.88
2023-01-02T06:39:47.642Z,99.45
2023-01-02T06:42:59.876Z,86.55
2023-01-02T06:46:08.287Z,104.70
2023-01-02T06:49:12.502Z,122.50
2023-01-02T06:52:19.280Z,105.93
2023-01-02T06:55:28.463Z,89.97
2023-01-02T06:58:35.371Z,66.78
2023-01-02T07:01:39.098Z,96.78
2023-01-02T07:04:44.508Z,68.33
2023-01-02T07:07:48.732Z,81.55
2023-01-02T07:10:55.240Z,73.85
2023-01-02T07:14:04.571Z,66.75
2023-01-02T07:17:14.817Z,84.80
2023-01-02T07:20:19.214Z,114.00
2023-01-02T07:23:22.667Z,99.85
2023-01-02T07:26:26.132Z,107.22
2023-01-02T07:29:28.916Z,97.80
2023-01-02T07:32:34.360Z,85.72
2023-01-02T07:35:39.211Z,100.07
2023-01-02T07:38:46.369Z,78.10
2023-01-02T07:41:56.167Z,67.07
2023-01-02T07:44:59.943Z,63.67
2023-01-02T07:48:06.529Z,91.90
2023-01-02T07:51:11.185Z,117.23
2023-01-02T07:54:14.079Z,64.75
2023-01-02T07:57:22.289Z,88.00
2023-01-02T08:00:36.725Z,53.70
2023-01-02T08:03:47.562Z,62.95
2023-01-02T08:06:59.089Z,65.33
2023-01-02T08:10:02.464Z,74.18
2023-01-02T08:13:16.240Z,57.90
2023-01-02T08:16:30.073Z,62.90
2023-01-02T08:19:34.697Z,68.70
2023-01-02T08:22:44.369Z,51.03
2023-01-02T08:26:00.291Z,65.12
2023-01-02T08:29:04.323Z,68.12
2023-01-02T08:32:11.160Z,60.22
2023-01-02T08:35:29.433Z,52.88
2023-01-02T08:38:44.565Z,46.60
2023-01-02T08:41:49.102Z,55.83
2023-01-02T08:44:59.260Z,65.18
2023-01-02T08:48:21.127Z,62.42
2023-01-02T08:51:27.100Z,64.80
2023-01-02T08:54:41.133Z,68.07
2023-01-02T08:57:45.083Z,65.50
2023-01-02T09:00:53.176Z,55.97
2023-01-02T09:04:11.990Z,64.87
2023-01-02T09:07:22.171Z,66.47
2023-01-02T09:10:33.249Z,71.17
2023-01-02T09:13:39.310Z,78.30
2023-01-02T09:16:45.331Z,65.00
2023-01-02T09:19:50.128Z,50.83
2023-01-02T09:22:53.668Z,73.72
2023-01-02T09:26:04.090Z,72.47
2023-01-02T09:29:18.014Z,50.38
2023-01-02T09:32:31.558Z,76.72
2023-01-02T09:35:39.738Z,84.55
2023-01-02T09:38:57.070Z,61.60
2023-01-02T09:42:01.084Z,76.47
2023-01-02T09:45:08.981Z,70.00
2023-01-02T09:48:24.961Z,71.43
2023-01-02T09:51:43.248Z,61.30
2023-01-02T09:54:56.123Z,81.05
2023-01-02T09:58:31.100Z,61.33
2023-01-02T10:02:07.381Z,54.83
2023-01-02T10:05:18.568Z,70.90
2023-01-02T10:09:02.047Z,57.35
2023-01-02T10:12:31.994Z,79.62
2023-01-02T10:15:40.240Z,51.37
2023-01-02T10:18:50.261Z,55.85
2023-01-02T10:22:00.872Z,58.55
2023-01-02T10:25:30.160Z,61.70
2023-01-02T10:28:46.596Z,73.85
2023-01-02T10:32:05.252Z,91.17
2023-01-02T10:35:25.109Z,59.05
2023-01-02T10:38:39.086Z,51.03
2023-01-02T10:41:48.141Z,56.65
2023-01-02T10:44:57.089Z,49.33
2023-01-02T10:48:08.289Z,48.47
2023-01-02T10:51:20.164Z,49.75
2023-01-02T10:54:24.110Z,49.53
2023-01-02T10:57:44.207Z,43.15
2023-01-02T11:01:08.498Z,46.10
2023-01-02T11:04:14.405Z,47.07
2023-01-02T11:07:32.988Z,49.88
2023-01-02T11:10:39.069Z,45.17
2023-01-02T11:13:59.019Z,43.97
2023-01-02T11:17:16.218Z,44.33
2023-01-02T11:20:36.343Z,42.77
2023-01-02T11:23:46.390Z,44.20
2023-01-02T11:26:56.020Z,45.42
2023-01-02T11:30:00.988Z,43.00
2023-01-02T11:33:16.113Z,46.63
2023-01-02T11:36:27.050Z,38.57
2023-01-02T11:39:38.145Z,39.45
2023-01-02T11:43:06.976Z,39.60
2023-01-02T11:46:22.127Z,39.40
2023-01-02T11:49:40.011Z,46.05
2023-01-02T11:53:13.190Z,41.93
2023-01-02T11:56:29.068Z,42.00
2023-01-02T11:59:48.239Z,42.70
2023-01-02T12:03:07.363Z,39.95
2023-01-02T12:06:21.126Z,42.30
2023-01-02T12:10:13.266Z,43.17
2023-01-02T12:14:10.203Z,40.63
2023-01-02T12:17:46.056Z,43.90
2023-01-02T12:21:10.131Z,42.05
2023-01-02T12:24:31.192Z,40.15
2023-01-02T12:27:42.062Z,41.60
2023-01-02T12:31:13.177Z,40.75
2023-01-02T12:34:55.292Z,43.25
2023-01-02T12:38:05.848Z,41.37
2023-01-02T12:42:00.524Z,44.28
2023-01-02T12:45:17.039Z,42.80
2023-01-02T12:48:56.010Z,49.47
2023-01-02T12:52:21.743Z,47.70
2023-01-02T12:56:06.996Z,48.92
2023-01-02T12:59:27.234Z,47.60
2023-01-02T13:02:56.650Z,50.40
2023-01-02T13:06:48.596Z,55.05
2023-01-02T13:09:57.355Z,54.53
2023-01-02T13:13:06.107Z,50.83
2023-01-02T13:16:25.217Z,48.92
2023-01-02T13:19:42.168Z,45.17
2023-01-02T13:23:19.261Z,49.90
2023-01-02T13:26:26.636Z,47.95
2023-01-02T13:29:47.343Z,45.08
2023-01-02T13:33:03.987Z,47.17
2023-01-02T13:36:22.869Z,47.60
2023-01-02T13:39:45.073Z,50.33
2023-01-02T13:42:58.513Z,45.15
2023-01-02T13:46:04.354Z,46.50
2023-01-02T13:49:20.144Z,49.67
2023-01-02T13:52:29.137Z,45.90
2023-01-02T13:55:39.795Z,46.50
2023-01-02T13:58:51.301Z,41.85
2023-01-02T14:02:08.356Z,41.90
2023-01-02T14:05:50.871Z,40.05
2023-01-02T14:09:04.897Z,49.93
2023-01-02T14:12:14.497Z,56.97
2023-01-02T14:15:27.116Z,54.10
2023-01-02T14:18:46.066Z,49.90
2023-01-02T14:22:00.381Z,47.80
2023-01-02T14:25:12.724Z,46.07
2023-01-02T14:28:30.337Z,39.45
2023-01-02T14:31:42.070Z,43.63
2023-01-02T14:34:56.184Z,44.08
2023-01-02T14:38:23.416Z,43.63
2023-01-02T14:42:11.089Z,45.03
2023-01-02T14:45:21.089Z,44.38
2023-01-02T14:48:45.160Z,43.72
2023-01-02T14:52:07.086Z,41.80
2023-01-02T14:55:19.374Z,40.63
2023-01-02T14:58:38.256Z,36.07
2023-01-02T15:01:44.883Z,41.80
2023-01-02T15:05:12.975Z,41.05
2023-01-02T15:08:42.531Z,40.38
2023-01-02T15:12:17.281Z,43.55
2023-01-02T15:15:28.239Z,38.60
2023-01-02T15:18:37.853Z,40.65
2023-01-02T15:21:44.031Z,40.17
2023-01-02T15:24:51.802Z,37.05
2023-01-02T15:27:58.060Z,42.60
2023-01-02T15:31:14.159Z,39.70
2023-01-02T15:34:29.503Z,42.05
2023-01-02T15:37:42.350Z,42.85
2023-01-02T15:40:56.473Z,45.33
2023-01-02T15:44:24.017Z,45.60
2023-01-02T15:47:33.857Z,47.07
2023-01-02T15:50:42.080Z,46.47
2023-01-02T15:54:03.401Z,44.30
2023-01-02T15:57:24.180Z,45.15
2023-01-02T16:00:40.418Z,43.20
2023-01-02T16:04:08.183Z,47.33
2023-01-02T16:07:25.053Z,50.97
2023-01-02T16:10:32.203Z,48.63
2023-01-02T16:14:07.100Z,55.10
2023-01-02T16:17:28.095Z,57.53
2023-01-02T16:20:42.386Z,59.27
2023-01-02T16:23:53.314Z,56.78
2023-01-02T16:26:59.311Z,55.70
2023-01-02T16:30:28.471Z,50.03
2023-01-02T16:33:38.101Z,56.25
2023-01-02T16:36:48.016Z,53.67
2023-01-02T16:40:02.948Z,53.97
2023-01-02T16:43:15.177Z,56.40
2023-01-02T16:46:26.273Z,52.97
2023-01-02T16:49:43.946Z,57.35
2023-01-02T16:52:54.294Z,57.63
2023-01-02T16:55:59.815Z,52.40
2023-01-02T16:59:04.329Z,51.63
2023-01-02T17:02:17.295Z,49.38
2023-01-02T17:05:38.526Z,48.65
2023-01-02T17:08:57.267Z,50.17
2023-01-02T17:12:04.430Z,50.67
2023-01-02T17:15:13.737Z,60.70
2023-01-02T17:18:30.186Z,61.05
2023-01-02T17:21:43.885Z,62.55
2023-01-02T17:24:52.615Z,68.27
2023-01-02T17:27:59.028Z,68.43
2023-01-02T17:31:11.142Z,66.93
2023-01-02T17:34:19.261Z,70.20
2023-01-02T17:37:33.275Z,71.35
2023-01-02T17:40:49.298Z,86.00
2023-01-02T17:44:03.956Z,82.88
2023-01-02T17:50:37.880Z,89.30
2023-01-02T17:53:51.017Z,111.45
2023-01-02T17:56:59.966Z,97.30
2023-01-02T18:00:20.006Z,119.65
2023-01-02T18:03:33.355Z,116.32
2023-01-02T18:06:39.629Z,178.85
2023-01-02T18:10:09.095Z,151.02
2023-01-02T18:13:25.238Z,168.60
2023-01-02T18:16:35.115Z,185.68
2023-01-02T18:19:44.060Z,149.95
2023-01-02T18:22:59.171Z,191.48
2023-01-02T18:26:13.443Z,187.23
2023-01-02T18:29:26.173Z,160.87
2023-01-02T18:32:40.057Z,155.63
2023-01-02T18:35:57.081Z,143.57
2023-01-02T18:39:32.076Z,129.77
2023-01-02T18:42:52.006Z,155.07
2023-01-02T18:46:14.113Z,84.43
2023-01-02T18:49:31.484Z,148.80
2023-01-02T18:52:44.061Z,172.13
2023-01-02T18:55:48.050Z,115.22
2023-01-02T18:59:27.120Z,138.75
2023-01-02T19:03:07.417Z,152.93
2023-01-02T19:06:23.445Z,131.63
2023-01-02T19:09:37.203Z,134.45
2023-01-02T19:13:07.157Z,94.43
2023-01-02T19:16:19.323Z,127.80
2023-01-02T19:19:26.289Z,99.87
2023-01-02T19:22:34.556Z,118.97
2023-01-02T19:25:45.014Z,142.20
2023-01-02T19:29:20.059Z,110.85
2023-01-02T19:32:35.280Z,109.95
2023-01-02T19:36:01.070Z,118.70
2023-01-02T19:39:24.610Z,93.18
2023-01-02T19:42:36.083Z,97.05
2023-01-02T19:46:02.035Z,85.75
2023-01-02T19:49:19.050Z,71.15
2023-01-02T19:52:29.183Z,109.13
2023-01-02T19:56:00.986Z,98.72
2023-01-02T19:59:12.893Z,90.00
2023-01-02T20:02:28.273Z,89.53
2023-01-02T20:05:39.814Z,111.65
2023-01-02T20:08:47.278Z,120.87
2023-01-02T20:12:12.169Z,113.95
2023-01-02T20:15:25.311Z,95.38
2023-01-02T20:18:31.515Z,121.82
2023-01-02T20:21:36.149Z,152.45
2023-01-02T20:24:49.315Z,108.73
2023-01-02T20:28:01.009Z,123.55
2023-01-02T20:31:11.151Z,170.65
2023-01-02T20:34:20.091Z,138.98
2023-01-02T20:37:30.996Z,167.52
2023-01-02T20:40:35.193Z,108.87
2023-01-02T20:43:40.157Z,119.15
2023-01-02T20:46:56.948Z,110.00
2023-01-02T20:50:05.104Z,148.52
2023-01-02T20:53:12.308Z,120.35
2023-01-02T20:56:20.883Z,131.30
2023-01-02T20:59:26.347Z,157.60
2023-01-02T21:02:40.492Z,141.57
2023-01-02T21:05:50.208Z,121.43
2023-01-02T21:08:54.559Z,129.87
2023-01-02T21:11:57.609Z,158.97
2023-01-02T21:15:31.026Z,174.52
2023-01-02T21:18:43.041Z,90.65
2023-01-02T21:21:56.920Z,125.68
2023-01-02T21:25:00.768Z,145.12
2023-01-02T21:28:18.651Z,110.83
2023-01-02T21:31:24.200Z,116.18
2023-01-02T21:34:29.692Z,95.38
2023-01-02T21:37:33.157Z,132.20
2023-01-02T21:40:40.987Z,138.50
2023-01-02T21:43:45.891Z,115.47
2023-01-02T21:46:51.319Z,106.87
2023-01-02T21:49:55.059Z,185.63
2023-01-02T21:53:03.996Z,135.40
2023-01-02T21:56:09.738Z,92.70
2023-01-02T21:59:14.848Z,128.13
2023-01-02T22:02:26.705Z,116.03
2023-01-02T22:05:47.952Z,89.10
2023-01-02T22:08:52.075Z,79.70
2023-01-02T22:11:58.058Z,100.85
2023-01-02T22:15:01.470Z,87.17
2023-01-02T22:18:05.565Z,132.57
2023-01-02T22:21:14.057Z,124.20
2023-01-02T22:24:19.820Z,123.00
2023-01-02T22:27:33.303Z,120.45
2023-01-02T22:30:39.041Z,120.60
2023-01-02T22:33:42.128Z,128.23
2023-01-02T22:36:46.488Z,102.95
2023-01-02T22:39:51.060Z,149.95
2023-01-02T22:43:00.850Z,88.70
2023-01-02T22:46:18.100Z,84.83
2023-01-02T22:49:27.347Z,79.97
2023-01-02T22:52:31.813Z,90.43
2023-01-02T22:55:35.682Z,79.97
2023-01-02T22:58:47.306Z,113.70
2023-01-02T23:01:51.513Z,326.27
2023-01-02T23:04:58.188Z,113.40
2023-01-02T23:08:11.309Z,148.62
2023-01-02T23:11:14.899Z,108.07
2023-01-02T23:14:19.310Z,82.35
2023-01-02T23:17:41.641Z,92.37
2023-01-02T23:20:47.317Z,139.12
2023-01-02T23:23:51.625Z,108.80
2023-01-02T23:26:57.672Z,92.05
2023-01-02T23:30:03.979Z,82.47
2023-01-02T23:33:18.050Z,119.33
2023-01-02T23:36:24.838Z,96.47
2023-01-02T23:39:31.466Z,82.70
2023-01-02T23:42:36.270Z,100.30
2023-01-02T23:45:39.628Z,105.22
2023-01-02T23:48:43.904Z,104.77
2023-01-02T23:51:46.771Z,111.50
2023-01-02T23:54:49.447Z,77.47
2023-01-02T23:57:53.018Z,100.40
